sensor_id;sensor_type;location;lat;lon;timestamp;pressure;altitude;pressure_sealevel;temperature;humidity
72110;BME280;59983;52.010;5.420;2023-09-30T00:01:41;102445.22;;;12.67;100.00
72110;BME280;59983;52.010;5.420;2023-09-30T00:04:08;102458.66;;;12.72;100.00
72110;BME280;59983;52.010;5.420;2023-09-30T00:06:35;102473.38;;;12.71;100.00
72110;BME280;59983;52.010;5.420;2023-09-30T00:09:02;102467.31;;;12.65;100.00
72110;BME280;59983;52.010;5.420;2023-09-30T00:11:29;102472.75;;;12.65;100.00
72110;BME280;59983;52.010;5.420;2023-09-30T00:13:56;102470.38;;;12.64;100.00
72110;BME280;59983;52.010;5.420;2023-09-30T00:16:23;102468.72;;;12.54;100.00
72110;BME280;59983;52.010;5.420;2023-09-30T00:18:49;102460.41;;;12.51;100.00
72110;BME280;59983;52.010;5.420;2023-09-30T00:21:16;102463.28;;;12.54;100.00
72110;BME280;59983;52.010;5.420;2023-09-30T00:23:43;102457.56;;;12.64;100.00
72110;BME280;59983;52.010;5.420;2023-09-30T00:26:09;102459.31;;;12.69;100.00
72110;BME280;59983;52.010;5.420;2023-09-30T00:28:36;102468.44;;;12.73;100.00
72110;BME280;59983;52.010;5.420;2023-09-30T00:31:06;102475.00;;;12.72;100.00
72110;BME280;59983;52.010;5.420;2023-09-30T00:33:35;102479.34;;;12.73;100.00
72110;BME280;59983;52.010;5.420;2023-09-30T00:36:10;102476.91;;;12.63;100.00
72110;BME280;59983;52.010;5.420;2023-09-30T00:38:37;102487.97;;;12.58;100.00
72110;BME280;59983;52.010;5.420;2023-09-30T00:41:04;102491.81;;;12.57;100.00
72110;BME280;59983;52.010;5.420;2023-09-30T00:43:30;102490.81;;;12.53;100.00
72110;BME280;59983;52.010;5.420;2023-09-30T00:48:47;102490.00;;;12.43;100.00
72110;BME280;59983;52.010;5.420;2023-09-30T00:51:14;102487.75;;;12.45;100.00
72110;BME280;59983;52.010;5.420;2023-09-30T00:53:43;102492.41;;;12.54;100.00
72110;BME280;59983;52.010;5.420;2023-09-30T00:56:10;102501.59;;;12.66;100.00
72110;BME280;59983;52.010;5.420;2023-09-30T00:58:38;102498.69;;;12.71;100.00
72110;BME280;59983;52.010;5.420;2023-09-30T01:01:05;102486.22;;;12.70;100.00
72110;BME280;59983;52.010;5.420;2023-09-30T01:03:31;102483.81;;;12.69;100.00
72110;BME280;59983;52.010;5.420;2023-09-30T01:05:58;102485.09;;;12.71;100.00
72110;BME280;59983;52.010;5.420;2023-09-30T01:08:26;102485.09;;;12.71;100.00
72110;BME280;59983;52.010;5.420;2023-09-30T01:10:54;102479.94;;;12.61;100.00
72110;BME280;59983;52.010;5.420;2023-09-30T01:13:21;102498.69;;;12.63;100.00
72110;BME280;59983;52.010;5.420;2023-09-30T01:15:47;102505.09;;;12.67;100.00
72110;BME280;59983;52.010;5.420;2023-09-30T01:18:14;102514.41;;;12.74;100.00
72110;BME280;59983;52.010;5.420;2023-09-30T01:20:41;102508.97;;;12.74;100.00
72110;BME280;59983;52.010;5.420;2023-09-30T01:23:08;102503.84;;;12.73;100.00
72110;BME280;59983;52.010;5.420;2023-09-30T01:25:38;102519.69;;;12.71;100.00
72110;BME280;59983;52.010;5.420;2023-09-30T01:28:07;102528.84;;;12.75;100.00
72110;BME280;59983;52.010;5.420;2023-09-30T01:30:34;102519.53;;;12.76;100.00
72110;BME280;59983;52.010;5.420;2023-09-30T01:33:01;102523.19;;;12.71;100.00
72110;BME280;59983;52.010;5.420;2023-09-30T01:35:27;102519.19;;;12.60;100.00
72110;BME280;59983;52.010;5.420;2023-09-30T01:37:54;102523.81;;;12.60;100.00
72110;BME280;59983;52.010;5.420;2023-09-30T01:40:20;102518.38;;;12.60;100.00
72110;BME280;59983;52.010;5.420;2023-09-30T01:42:47;102521.28;;;12.63;100.00
72110;BME280;59983;52.010;5.420;2023-09-30T01:45:13;102509.91;;;12.70;100.00
72110;BME280;59983;52.010;5.420;2023-09-30T01:47:41;102514.56;;;12.69;100.00
72110;BME280;59983;52.010;5.420;2023-09-30T01:50:08;102512.63;;;12.70;100.00
72110;BME280;59983;52.010;5.420;2023-09-30T01:52:34;102513.13;;;12.63;100.00
72110;BME280;59983;52.010;5.420;2023-09-30T01:55:01;102506.53;;;12.56;100.00
72110;BME280;59983;52.010;5.420;2023-09-30T01:57:28;102497.25;;;12.57;100.00
72110;BME280;59983;52.010;5.420;2023-09-30T01:59:54;102502.84;;;12.52;100.00
72110;BME280;59983;52.010;5.420;2023-09-30T02:02:21;102495.94;;;12.54;100.00
72110;BME280;59983;52.010;5.420;2023-09-30T02:04:47;102489.56;;;12.59;100.00
72110;BME280;59983;52.010;5.420;2023-09-30T02:07:14;102493.88;;;12.60;100.00
72110;BME280;59983;52.010;5.420;2023-09-30T02:09:40;102505.56;;;12.60;100.00
72110;BME280;59983;52.010;5.420;2023-09-30T02:12:07;102511.81;;;12.61;100.00
72110;BME280;59983;52.010;5.420;2023-09-30T02:14:35;102513.59;;;12.57;100.00
72110;BME280;59983;52.010;5.420;2023-09-30T02:17:02;102520.94;;;12.56;100.00
72110;BME280;59983;52.010;5.420;2023-09-30T02:19:28;102520.59;;;12.49;100.00
72110;BME280;59983;52.010;5.420;2023-09-30T02:21:55;102520.41;;;12.45;100.00
72110;BME280;59983;52.010;5.420;2023-09-30T02:24:21;102513.69;;;12.43;100.00
72110;BME280;59983;52.010;5.420;2023-09-30T02:26:49;102521.69;;;12.39;100.00
72110;BME280;59983;52.010;5.420;2023-09-30T02:29:16;102514.00;;;12.33;100.00
72110;BME280;59983;52.010;5.420;2023-09-30T02:31:42;102506.63;;;12.33;100.00
72110;BME280;59983;52.010;5.420;2023-09-30T02:34:09;102513.53;;;12.39;100.00
72110;BME280;59983;52.010;5.420;2023-09-30T02:36:35;102512.91;;;12.51;100.00
72110;BME280;59983;52.010;5.420;2023-09-30T02:39:05;102499.78;;;12.53;100.00
72110;BME280;59983;52.010;5.420;2023-09-30T02:41:35;102502.38;;;12.58;100.00
72110;BME280;59983;52.010;5.420;2023-09-30T02:44:04;102492.75;;;12.61;100.00
72110;BME280;59983;52.010;5.420;2023-09-30T02:46:31;102490.06;;;12.69;100.00
72110;BME280;59983;52.010;5.420;2023-09-30T02:48:57;102480.63;;;12.75;100.00
72110;BME280;59983;52.010;5.420;2023-09-30T02:51:24;102492.16;;;12.81;100.00
72110;BME280;59983;52.010;5.420;2023-09-30T02:53:51;102494.72;;;12.77;100.00
72110;BME280;59983;52.010;5.420;2023-09-30T02:56:18;102491.50;;;12.67;100.00
72110;BME280;59983;52.010;5.420;2023-09-30T02:58:46;102485.91;;;12.63;100.00
72110;BME280;59983;52.010;5.420;2023-09-30T03:01:15;102495.34;;;12.66;100.00
72110;BME280;59983;52.010;5.420;2023-09-30T03:03:47;102492.63;;;12.66;100.00
72110;BME280;59983;52.010;5.420;2023-09-30T03:06:14;102494.69;;;12.69;100.00
72110;BME280;59983;52.010;5.420;2023-09-30T03:08:40;102484.44;;;12.66;100.00
72110;BME280;59983;52.010;5.420;2023-09-30T03:11:07;102497.09;;;12.62;100.00
72110;BME280;59983;52.010;5.420;2023-09-30T03:13:34;102504.00;;;12.68;100.00
72110;BME280;59983;52.010;5.420;2023-09-30T03:16:00;102497.59;;;12.72;100.00
72110;BME280;59983;52.010;5.420;2023-09-30T03:18:30;102489.91;;;12.74;100.00
72110;BME280;59983;52.010;5.420;2023-09-30T03:21:01;102492.78;;;12.78;100.00
72110;BME280;59983;52.010;5.420;2023-09-30T03:23:28;102491.31;;;12.72;100.00
72110;BME280;59983;52.010;5.420;2023-09-30T03:25:57;102486.38;;;12.65;100.00
72110;BME280;59983;52.010;5.420;2023-09-30T03:28:24;102491.97;;;12.69;100.00
72110;BME280;59983;52.010;5.420;2023-09-30T03:30:51;102478.53;;;12.72;100.00
72110;BME280;59983;52.010;5.420;2023-09-30T03:33:18;102490.38;;;12.76;100.00
72110;BME280;59983;52.010;5.420;2023-09-30T03:35:44;102489.44;;;12.81;100.00
72110;BME280;59983;52.010;5.420;2023-09-30T03:38:12;102490.25;;;12.82;100.00
72110;BME280;59983;52.010;5.420;2023-09-30T03:40:42;102486.53;;;12.77;100.00
72110;BME280;59983;52.010;5.420;2023-09-30T03:43:16;102490.72;;;12.75;100.00
72110;BME280;59983;52.010;5.420;2023-09-30T03:45:42;102489.72;;;12.71;100.00
72110;BME280;59983;52.010;5.420;2023-09-30T03:48:09;102487.31;;;12.69;100.00
72110;BME280;59983;52.010;5.420;2023-09-30T03:50:37;102486.53;;;12.77;100.00
72110;BME280;59983;52.010;5.420;2023-09-30T03:53:05;102489.75;;;12.80;100.00
72110;BME280;59983;52.010;5.420;2023-09-30T03:55:33;102483.66;;;12.74;100.00
72110;BME280;59983;52.010;5.420;2023-09-30T03:58:00;102492.44;;;12.71;100.00
72110;BME280;59983;52.010;5.420;2023-09-30T04:00:26;102498.69;;;12.71;100.00
72110;BME280;59983;52.010;5.420;2023-09-30T04:02:55;102498.88;;;12.75;100.00
72110;BME280;59983;52.010;5.420;2023-09-30T04:05:25;102493.91;;;12.77;100.00
72110;BME280;59983;52.010;5.420;2023-09-30T04:08:03;102482.53;;;12.75;100.00
72110;BME280;59983;52.010;5.420;2023-09-30T04:10:31;102490.53;;;12.80;100.00
72110;BME280;59983;52.010;5.420;2023-09-30T04:12:58;102495.19;;;12.80;100.00
72110;BME280;59983;52.010;5.420;2023-09-30T04:15:25;102500.00;;;12.74;100.00
72110;BME280;59983;52.010;5.420;2023-09-30T04:17:51;102496.28;;;12.70;100.00
72110;BME280;59983;52.010;5.420;2023-09-30T04:20:19;102487.81;;;12.71;100.00
72110;BME280;59983;52.010;5.420;2023-09-30T04:22:50;102494.38;;;12.79;100.00
72110;BME280;59983;52.010;5.420;2023-09-30T04:25:17;102497.75;;;12.85;100.00
72110;BME280;59983;52.010;5.420;2023-09-30T04:27:45;102505.47;;;12.91;100.00
72110;BME280;59983;52.010;5.420;2023-09-30T04:30:15;102505.94;;;12.93;100.00
72110;BME280;59983;52.010;5.420;2023-09-30T04:32:42;102507.53;;;12.94;100.00
72110;BME280;59983;52.010;5.420;2023-09-30T04:35:09;102505.63;;;12.95;100.00
72110;BME280;59983;52.010;5.420;2023-09-30T04:37:36;102509.94;;;12.96;100.00
72110;BME280;59983;52.010;5.420;2023-09-30T04:40:04;102504.00;;;12.94;100.00
72110;BME280;59983;52.010;5.420;2023-09-30T04:42:34;102500.81;;;12.92;100.00
72110;BME280;59983;52.010;5.420;2023-09-30T04:45:03;102501.94;;;12.91;100.00
72110;BME280;59983;52.010;5.420;2023-09-30T04:47:33;102510.56;;;12.84;100.00
72110;BME280;59983;52.010;5.420;2023-09-30T04:50:00;102511.84;;;12.87;100.00
72110;BME280;59983;52.010;5.420;2023-09-30T04:52:30;102514.25;;;12.88;100.00
72110;BME280;59983;52.010;5.420;2023-09-30T04:54:57;102519.06;;;12.83;100.00
72110;BME280;59983;52.010;5.420;2023-09-30T04:57:24;102511.03;;;12.77;100.00
72110;BME280;59983;52.010;5.420;2023-09-30T04:59:50;102523.41;;;12.84;100.00
72110;BME280;59983;52.010;5.420;2023-09-30T05:02:17;102532.50;;;12.79;100.00
72110;BME280;59983;52.010;5.420;2023-09-30T05:04:43;102529.31;;;12.77;100.00
72110;BME280;59983;52.010;5.420;2023-09-30T05:07:10;102530.88;;;12.69;100.00
72110;BME280;59983;52.010;5.420;2023-09-30T05:09:39;102533.28;;;12.62;100.00
72110;BME280;59983;52.010;5.420;2023-09-30T05:12:06;102527.00;;;12.53;100.00
72110;BME280;59983;52.010;5.420;2023-09-30T05:14:33;102530.22;;;12.46;100.00
72110;BME280;59983;52.010;5.420;2023-09-30T05:16:59;102526.81;;;12.41;100.00
72110;BME280;59983;52.010;5.420;2023-09-30T05:19:26;102521.53;;;12.44;100.00
72110;BME280;59983;52.010;5.420;2023-09-30T05:21:52;102533.09;;;12.50;100.00
72110;BME280;59983;52.010;5.420;2023-09-30T05:24:19;102526.06;;;12.58;100.00
72110;BME280;59983;52.010;5.420;2023-09-30T05:26:47;102529.59;;;12.58;100.00
72110;BME280;59983;52.010;5.420;2023-09-30T05:29:14;102529.75;;;12.62;100.00
72110;BME280;59983;52.010;5.420;2023-09-30T05:31:41;102523.81;;;12.60;100.00
72110;BME280;59983;52.010;5.420;2023-09-30T05:34:08;102540.47;;;12.58;100.00
72110;BME280;59983;52.010;5.420;2023-09-30T05:36:34;102529.44;;;12.55;100.00
72110;BME280;59983;52.010;5.420;2023-09-30T05:39:01;102539.00;;;12.52;100.00
72110;BME280;59983;52.010;5.420;2023-09-30T05:41:29;102544.47;;;12.52;100.00
72110;BME280;59983;52.010;5.420;2023-09-30T05:43:56;102550.38;;;12.54;100.00
72110;BME280;59983;52.010;5.420;2023-09-30T05:46:23;102550.09;;;12.56;100.00
72110;BME280;59983;52.010;5.420;2023-09-30T05:48:49;102557.75;;;12.54;100.00
72110;BME280;59983;52.010;5.420;2023-09-30T05:51:16;102544.66;;;12.56;100.00
72110;BME280;59983;52.010;5.420;2023-09-30T05:53:45;102535.69;;;12.55;100.00
72110;BME280;59983;52.010;5.420;2023-09-30T05:56:13;102543.66;;;12.52;100.00
72110;BME280;59983;52.010;5.420;2023-09-30T05:58:42;102540.31;;;12.55;100.00
72110;BME280;59983;52.010;5.420;2023-09-30T06:01:08;102540.00;;;12.56;100.00
72110;BME280;59983;52.010;5.420;2023-09-30T06:03:39;102535.34;;;12.57;100.00
72110;BME280;59983;52.010;5.420;2023-09-30T06:06:16;102540.81;;;12.57;100.00
72110;BME280;59983;52.010;5.420;2023-09-30T06:08:42;102542.09;;;12.59;100.00
72110;BME280;59983;52.010;5.420;2023-09-30T06:11:19;102536.63;;;12.51;100.00
72110;BME280;59983;52.010;5.420;2023-09-30T06:13:47;102544.94;;;12.54;100.00
72110;BME280;59983;52.010;5.420;2023-09-30T06:16:14;102540.31;;;12.55;100.00
72110;BME280;59983;52.010;5.420;2023-09-30T06:18:42;102526.41;;;12.56;100.00
72110;BME280;59983;52.010;5.420;2023-09-30T06:21:09;102540.97;;;12.60;100.00
72110;BME280;59983;52.010;5.420;2023-09-30T06:23:36;102533.59;;;12.61;100.00
72110;BME280;59983;52.010;5.420;2023-09-30T06:26:03;102537.13;;;12.61;100.00
72110;BME280;59983;52.010;5.420;2023-09-30T06:28:29;102536.31;;;12.61;100.00
72110;BME280;59983;52.010;5.420;2023-09-30T06:30:57;102540.34;;;12.63;100.00
72110;BME280;59983;52.010;5.420;2023-09-30T06:33:25;102539.69;;;12.66;100.00
72110;BME280;59983;52.010;5.420;2023-09-30T06:35:51;102546.09;;;12.70;100.00
72110;BME280;59983;52.010;5.420;2023-09-30T06:38:19;102557.00;;;12.70;100.00
72110;BME280;59983;52.010;5.420;2023-09-30T06:40:46;102550.94;;;12.73;100.00
72110;BME280;59983;52.010;5.420;2023-09-30T06:43:14;102548.53;;;12.81;100.00
72110;BME280;59983;52.010;5.420;2023-09-30T06:45:44;102565.84;;;12.85;100.00
72110;BME280;59983;52.010;5.420;2023-09-30T06:48:13;102568.91;;;12.92;100.00
72110;BME280;59983;52.010;5.420;2023-09-30T06:50:43;102578.22;;;12.99;100.00
72110;BME280;59983;52.010;5.420;2023-09-30T06:53:11;102582.03;;;13.07;100.00
72110;BME280;59983;52.010;5.420;2023-09-30T06:55:38;102578.22;;;13.08;100.00
72110;BME280;59983;52.010;5.420;2023-09-30T06:58:06;102578.69;;;13.10;100.00
72110;BME280;59983;52.010;5.420;2023-09-30T07:00:37;102583.69;;;13.17;100.00
72110;BME280;59983;52.010;5.420;2023-09-30T07:03:04;102590.44;;;13.28;100.00
72110;BME280;59983;52.010;5.420;2023-09-30T07:05:31;102596.69;;;13.37;100.00
72110;BME280;59983;52.010;5.420;2023-09-30T07:07:58;102594.78;;;13.46;100.00
72110;BME280;59983;52.010;5.420;2023-09-30T07:10:25;102596.84;;;13.49;100.00
72110;BME280;59983;52.010;5.420;2023-09-30T07:12:51;102605.19;;;13.53;100.00
72110;BME280;59983;52.010;5.420;2023-09-30T07:15:18;102604.88;;;13.63;100.00
72110;BME280;59983;52.010;5.420;2023-09-30T07:17:44;102605.00;;;13.67;100.00
72110;BME280;59983;52.010;5.420;2023-09-30T07:20:12;102612.38;;;13.75;100.00
72110;BME280;59983;52.010;5.420;2023-09-30T07:22:39;102615.91;;;13.75;100.00
72110;BME280;59983;52.010;5.420;2023-09-30T07:25:08;102615.28;;;13.87;100.00
72110;BME280;59983;52.010;5.420;2023-09-30T07:27:35;102617.50;;;13.85;100.00
72110;BME280;59983;52.010;5.420;2023-09-30T07:30:02;102625.53;;;13.90;100.00
72110;BME280;59983;52.010;5.420;2023-09-30T07:32:29;102617.16;;;14.04;100.00
72110;BME280;59983;52.010;5.420;2023-09-30T07:34:55;102618.44;;;14.06;100.00
72110;BME280;59983;52.010;5.420;2023-09-30T07:37:22;102626.47;;;14.03;100.00
72110;BME280;59983;52.010;5.420;2023-09-30T07:39:49;102632.09;;;13.98;100.00
72110;BME280;59983;52.010;5.420;2023-09-30T07:42:16;102633.69;;;13.99;100.00
72110;BME280;59983;52.010;5.420;2023-09-30T07:44:43;102646.22;;;14.00;100.00
72110;BME280;59983;52.010;5.420;2023-09-30T07:47:10;102631.75;;;14.08;100.00
72110;BME280;59983;52.010;5.420;2023-09-30T07:49:38;102637.19;;;14.16;100.00
72110;BME280;59983;52.010;5.420;2023-09-30T07:52:04;102648.25;;;14.20;100.00
72110;BME280;59983;52.010;5.420;2023-09-30T07:54:31;102644.06;;;14.31;100.00
72110;BME280;59983;52.010;5.420;2023-09-30T07:56:59;102647.41;;;14.37;100.00
72110;BME280;59983;52.010;5.420;2023-09-30T07:59:26;102635.19;;;14.43;100.00
72110;BME280;59983;52.010;5.420;2023-09-30T08:01:53;102642.38;;;14.56;100.00
72110;BME280;59983;52.010;5.420;2023-09-30T08:04:20;102636.25;;;14.68;100.00
72110;BME280;59983;52.010;5.420;2023-09-30T08:06:47;102628.31;;;14.75;100.00
72110;BME280;59983;52.010;5.420;2023-09-30T08:09:14;102623.63;;;14.84;100.00
72110;BME280;59983;52.010;5.420;2023-09-30T08:11:40;102627.06;;;15.02;100.00
72110;BME280;59983;52.010;5.420;2023-09-30T08:14:07;102623.25;;;15.15;100.00
72110;BME280;59983;52.010;5.420;2023-09-30T08:16:36;102626.53;;;15.29;100.00
72110;BME280;59983;52.010;5.420;2023-09-30T08:19:04;102619.72;;;15.36;100.00
72110;BME280;59983;52.010;5.420;2023-09-30T08:21:30;102614.97;;;15.45;100.00
72110;BME280;59983;52.010;5.420;2023-09-30T08:23:57;102609.13;;;15.55;100.00
72110;BME280;59983;52.010;5.420;2023-09-30T08:26:24;102596.66;;;15.66;100.00
72110;BME280;59983;52.010;5.420;2023-09-30T08:28:51;102601.25;;;15.74;100.00
72110;BME280;59983;52.010;5.420;2023-09-30T08:31:17;102604.69;;;15.83;100.00
72110;BME280;59983;52.010;5.420;2023-09-30T08:33:45;102610.44;;;15.91;100.00
72110;BME280;59983;52.010;5.420;2023-09-30T08:36:12;102602.31;;;15.94;100.00
72110;BME280;59983;52.010;5.420;2023-09-30T08:38:40;102612.72;;;16.01;100.00
72110;BME280;59983;52.010;5.420;2023-09-30T08:41:07;102612.06;;;16.16;100.00
72110;BME280;59983;52.010;5.420;2023-09-30T08:43:38;102617.03;;;16.35;100.00
72110;BME280;59983;52.010;5.420;2023-09-30T08:46:06;102617.22;;;16.30;100.00
72110;BME280;59983;52.010;5.420;2023-09-30T08:48:34;102618.97;;;16.34;100.00
72110;BME280;59983;52.010;5.420;2023-09-30T08:51:01;102615.06;;;16.35;100.00
72110;BME280;59983;52.010;5.420;2023-09-30T08:53:31;102623.28;;;16.35;100.00
72110;BME280;59983;52.010;5.420;2023-09-30T08:55:58;102624.78;;;16.45;100.00
72110;BME280;59983;52.010;5.420;2023-09-30T08:58:27;102626.13;;;16.51;100.00
72110;BME280;59983;52.010;5.420;2023-09-30T09:00:55;102626.50;;;16.62;100.00
72110;BME280;59983;52.010;5.420;2023-09-30T09:03:23;102624.78;;;16.57;100.00
72110;BME280;59983;52.010;5.420;2023-09-30T09:05:54;102626.72;;;16.57;100.00
72110;BME280;59983;52.010;5.420;2023-09-30T09:08:25;102633.25;;;16.64;100.00
72110;BME280;59983;52.010;5.420;2023-09-30T09:10:59;102635.53;;;16.62;100.00
72110;BME280;59983;52.010;5.420;2023-09-30T09:13:27;102634.72;;;16.62;100.00
72110;BME280;59983;52.010;5.420;2023-09-30T09:16:07;102640.75;;;16.67;100.00
72110;BME280;59983;52.010;5.420;2023-09-30T09:18:35;102648.09;;;16.76;100.00
72110;BME280;59983;52.010;5.420;2023-09-30T09:21:13;102644.22;;;16.77;100.00
72110;BME280;59983;52.010;5.420;2023-09-30T09:23:44;102648.91;;;16.76;100.00
72110;BME280;59983;52.010;5.420;2023-09-30T09:26:31;102657.25;;;16.80;100.00
72110;BME280;59983;52.010;5.420;2023-09-30T09:29:03;102660.91;;;16.84;100.00
72110;BME280;59983;52.010;5.420;2023-09-30T09:31:32;102667.31;;;16.88;100.00
72110;BME280;59983;52.010;5.420;2023-09-30T09:34:02;102672.00;;;16.87;100.00
72110;BME280;59983;52.010;5.420;2023-09-30T09:36:42;102678.03;;;16.93;100.00
72110;BME280;59983;52.010;5.420;2023-09-30T09:39:10;102682.00;;;16.95;100.00
72110;BME280;59983;52.010;5.420;2023-09-30T09:41:50;102691.50;;;16.98;100.00
72110;BME280;59983;52.010;5.420;2023-09-30T09:44:21;102674.81;;;17.03;100.00
72110;BME280;59983;52.010;5.420;2023-09-30T09:46:49;102676.88;;;17.06;100.00
72110;BME280;59983;52.010;5.420;2023-09-30T09:49:18;102677.09;;;17.13;100.00
72110;BME280;59983;52.010;5.420;2023-09-30T09:51:46;102672.41;;;17.14;100.00
72110;BME280;59983;52.010;5.420;2023-09-30T09:54:15;102674.03;;;17.15;100.00
72110;BME280;59983;52.010;5.420;2023-09-30T09:56:44;102677.22;;;17.17;100.00
72110;BME280;59983;52.010;5.420;2023-09-30T09:59:14;102675.94;;;17.26;100.00
72110;BME280;59983;52.010;5.420;2023-09-30T10:01:41;102683.59;;;17.33;100.00
72110;BME280;59983;52.010;5.420;2023-09-30T10:04:12;102689.03;;;17.45;100.00
72110;BME280;59983;52.010;5.420;2023-09-30T10:06:44;102685.59;;;17.48;100.00
72110;BME280;59983;52.010;5.420;2023-09-30T10:09:16;102699.19;;;17.57;100.00
72110;BME280;59983;52.010;5.420;2023-09-30T10:11:44;102696.56;;;17.61;100.00
72110;BME280;59983;52.010;5.420;2023-09-30T10:14:32;102689.69;;;17.54;100.00
72110;BME280;59983;52.010;5.420;2023-09-30T10:16:59;102684.22;;;17.54;100.00
72110;BME280;59983;52.010;5.420;2023-09-30T10:19:26;102673.69;;;17.56;100.00
72110;BME280;59983;52.010;5.420;2023-09-30T10:24:46;102653.09;;;17.63;100.00
72110;BME280;59983;52.010;5.420;2023-09-30T10:33:08;102649.84;;;17.85;100.00
72110;BME280;59983;52.010;5.420;2023-09-30T10:38:36;102651.66;;;17.81;100.00
72110;BME280;59983;52.010;5.420;2023-09-30T10:41:04;102651.47;;;17.74;100.00
72110;BME280;59983;52.010;5.420;2023-09-30T10:43:32;102641.66;;;17.73;100.00
72110;BME280;59983;52.010;5.420;2023-09-30T10:46:00;102645.38;;;17.80;100.00
72110;BME280;59983;52.010;5.420;2023-09-30T10:51:20;102653.94;;;18.07;100.00
72110;BME280;59983;52.010;5.420;2023-09-30T10:53:52;102652.63;;;18.17;99.57
72110;BME280;59983;52.010;5.420;2023-09-30T10:56:23;102652.75;;;18.20;99.36
72110;BME280;59983;52.010;5.420;2023-09-30T10:58:52;102647.75;;;18.26;98.32
72110;BME280;59983;52.010;5.420;2023-09-30T11:01:20;102645.75;;;18.38;97.63
72110;BME280;59983;52.010;5.420;2023-09-30T11:03:49;102640.94;;;18.51;99.27
72110;BME280;59983;52.010;5.420;2023-09-30T11:06:20;102650.72;;;18.49;95.18
72110;BME280;59983;52.010;5.420;2023-09-30T11:08:54;102645.28;;;18.52;95.38
72110;BME280;59983;52.010;5.420;2023-09-30T11:11:42;102645.13;;;18.45;93.36
72110;BME280;59983;52.010;5.420;2023-09-30T11:16:54;102639.00;;;18.20;90.88
72110;BME280;59983;52.010;5.420;2023-09-30T11:19:21;102642.88;;;18.19;91.66
72110;BME280;59983;52.010;5.420;2023-09-30T11:21:52;102642.19;;;18.22;91.29
72110;BME280;59983;52.010;5.420;2023-09-30T11:24:21;102641.59;;;18.29;91.15
72110;BME280;59983;52.010;5.420;2023-09-30T11:26:52;102637.03;;;18.36;94.26
72110;BME280;59983;52.010;5.420;2023-09-30T11:29:19;102640.25;;;18.38;95.66
72110;BME280;59983;52.010;5.420;2023-09-30T11:31:48;102632.34;;;18.37;94.31
72110;BME280;59983;52.010;5.420;2023-09-30T11:34:16;102624.72;;;18.46;96.61
72110;BME280;59983;52.010;5.420;2023-09-30T11:36:51;102613.28;;;18.60;94.16
72110;BME280;59983;52.010;5.420;2023-09-30T11:39:28;102610.81;;;18.71;91.48
72110;BME280;59983;52.010;5.420;2023-09-30T11:41:56;102610.13;;;18.74;90.73
72110;BME280;59983;52.010;5.420;2023-09-30T11:44:27;102611.72;;;18.75;89.64
72110;BME280;59983;52.010;5.420;2023-09-30T11:47:00;102606.84;;;18.68;90.30
72110;BME280;59983;52.010;5.420;2023-09-30T11:49:36;102621.31;;;18.65;90.52
72110;BME280;59983;52.010;5.420;2023-09-30T11:52:12;102622.53;;;18.67;90.61
72110;BME280;59983;52.010;5.420;2023-09-30T11:54:41;102623.69;;;18.66;89.93
72110;BME280;59983;52.010;5.420;2023-09-30T11:57:17;102636.16;;;18.64;90.16
72110;BME280;59983;52.010;5.420;2023-09-30T11:59:45;102633.53;;;18.67;89.20
72110;BME280;59983;52.010;5.420;2023-09-30T12:02:14;102629.63;;;18.68;88.02
72110;BME280;59983;52.010;5.420;2023-09-30T12:04:45;102628.09;;;18.71;89.85
72110;BME280;59983;52.010;5.420;2023-09-30T12:07:14;102621.72;;;18.83;91.08
72110;BME280;59983;52.010;5.420;2023-09-30T12:09:41;102615.06;;;18.84;92.08
72110;BME280;59983;52.010;5.420;2023-09-30T12:12:08;102611.78;;;18.78;88.06
72110;BME280;59983;52.010;5.420;2023-09-30T12:14:40;102611.41;;;18.80;87.55
72110;BME280;59983;52.010;5.420;2023-09-30T12:17:07;102598.03;;;18.78;87.33
72110;BME280;59983;52.010;5.420;2023-09-30T12:19:39;102592.69;;;18.85;92.60
72110;BME280;59983;52.010;5.420;2023-09-30T12:22:07;102594.66;;;18.85;89.08
72110;BME280;59983;52.010;5.420;2023-09-30T12:24:34;102592.78;;;18.89;89.35
72110;BME280;59983;52.010;5.420;2023-09-30T12:27:01;102587.19;;;18.85;86.51
72110;BME280;59983;52.010;5.420;2023-09-30T12:29:28;102584.44;;;18.85;83.91
72110;BME280;59983;52.010;5.420;2023-09-30T12:31:54;102582.50;;;18.86;86.85
72110;BME280;59983;52.010;5.420;2023-09-30T12:34:22;102578.59;;;18.87;86.53
72110;BME280;59983;52.010;5.420;2023-09-30T12:36:52;102571.06;;;18.84;86.76
72110;BME280;59983;52.010;5.420;2023-09-30T12:39:19;102576.94;;;18.82;86.15
72110;BME280;59983;52.010;5.420;2023-09-30T12:41:51;102584.03;;;18.83;88.33
72110;BME280;59983;52.010;5.420;2023-09-30T12:44:18;102586.78;;;18.83;86.11
72110;BME280;59983;52.010;5.420;2023-09-30T12:46:45;102582.50;;;18.86;86.47
72110;BME280;59983;52.010;5.420;2023-09-30T12:49:12;102585.19;;;18.82;88.23
72110;BME280;59983;52.010;5.420;2023-09-30T12:51:39;102574.88;;;18.79;87.84
72110;BME280;59983;52.010;5.420;2023-09-30T12:54:06;102577.94;;;18.74;86.74
72110;BME280;59983;52.010;5.420;2023-09-30T12:56:32;102577.13;;;18.74;88.03
72110;BME280;59983;52.010;5.420;2023-09-30T12:58:59;102580.69;;;18.74;91.22
72110;BME280;59983;52.010;5.420;2023-09-30T13:01:26;102583.84;;;18.76;89.15
72110;BME280;59983;52.010;5.420;2023-09-30T13:03:55;102583.06;;;18.76;88.97
72110;BME280;59983;52.010;5.420;2023-09-30T13:06:22;102582.34;;;18.79;92.19
72110;BME280;59983;52.010;5.420;2023-09-30T13:08:49;102581.63;;;18.82;89.95